createdAt,value
2017-08-18T00:01:06.106Z,17.80
2017-08-18T00:03:33.645Z,17.70
2017-08-18T00:06:01.985Z,17.70
2017-08-18T00:08:29.521Z,17.60
2017-08-18T00:10:57.077Z,17.70
2017-08-18T00:13:24.617Z,17.70
2017-08-18T00:15:52.174Z,17.70
2017-08-18T00:18:19.716Z,17.60
2017-08-18T00:20:48.049Z,17.60
2017-08-18T00:23:15.593Z,17.60
2017-08-18T00:25:43.144Z,17.60
2017-08-18T00:28:10.727Z,17.50
2017-08-18T00:30:38.275Z,17.50
2017-08-18T00:33:05.818Z,17.40
2017-08-18T00:35:33.368Z,17.40
2017-08-18T00:38:01.695Z,17.40
2017-08-18T00:40:29.240Z,17.40
2017-08-18T00:42:56.802Z,17.40
2017-08-18T00:45:24.357Z,17.40
2017-08-18T00:47:51.898Z,17.40
2017-08-18T00:50:19.430Z,17.50
2017-08-18T00:52:47.781Z,17.50
2017-08-18T00:55:15.320Z,17.50
2017-08-18T00:57:42.882Z,17.50
2017-08-18T01:00:10.417Z,17.30
2017-08-18T01:02:37.997Z,17.40
2017-08-18T01:05:05.554Z,17.30
2017-08-18T01:07:33.115Z,17.30
2017-08-18T01:10:00.656Z,17.20
2017-08-18T01:12:28.189Z,17.20
2017-08-18T01:14:56.516Z,17.10
2017-08-18T01:17:24.064Z,17.10
2017-08-18T01:19:51.622Z,17.20
2017-08-18T01:22:19.168Z,17.10
2017-08-18T01:24:46.716Z,17.20
2017-08-18T01:27:15.017Z,17.00
2017-08-18T01:29:42.545Z,17.00
2017-08-18T01:32:10.877Z,17.00
2017-08-18T01:34:38.413Z,17.00
2017-08-18T01:37:05.969Z,17.00
2017-08-18T01:39:33.562Z,17.10
2017-08-18T01:42:01.094Z,17.10
2017-08-18T01:44:28.630Z,17.10
2017-08-18T01:46:57.481Z,17.00
2017-08-18T01:49:25.015Z,16.90
2017-08-18T01:51:52.569Z,17.00
2017-08-18T01:54:20.105Z,17.00
2017-08-18T01:56:47.653Z,17.10
2017-08-18T01:59:15.992Z,17.50
2017-08-18T02:01:43.546Z,17.50
2017-08-18T02:04:11.072Z,17.60
2017-08-18T02:06:38.632Z,17.70
2017-08-18T02:09:06.176Z,17.70
2017-08-18T02:11:34.478Z,17.70
2017-08-18T02:14:02.044Z,17.70
2017-08-18T02:16:29.619Z,17.70
2017-08-18T02:18:57.154Z,17.70
2017-08-18T02:21:24.704Z,17.60
2017-08-18T02:23:52.258Z,17.60
2017-08-18T02:26:19.818Z,17.50
2017-08-18T02:28:47.352Z,17.60
2017-08-18T02:31:15.650Z,17.50
2017-08-18T02:33:43.205Z,17.40
2017-08-18T02:36:10.766Z,17.40
2017-08-18T02:38:39.070Z,17.30
2017-08-18T02:41:06.597Z,17.30
2017-08-18T02:43:34.917Z,17.40
2017-08-18T02:46:02.449Z,17.40
2017-08-18T02:48:30.009Z,17.30
2017-08-18T02:50:57.559Z,17.30
2017-08-18T02:53:25.866Z,17.40
2017-08-18T02:55:53.393Z,17.30
2017-08-18T02:58:20.934Z,17.40
2017-08-18T03:00:48.509Z,17.30
2017-08-18T03:03:16.818Z,17.20
2017-08-18T03:05:44.349Z,17.20
2017-08-18T03:08:11.899Z,17.20
2017-08-18T03:10:39.442Z,17.20
2017-08-18T03:13:07.008Z,17.20
2017-08-18T03:15:35.338Z,17.30
2017-08-18T03:18:02.881Z,17.30
2017-08-18T03:20:30.425Z,17.60
2017-08-18T03:22:57.959Z,17.80
2017-08-18T03:25:25.505Z,18.00
2017-08-18T03:27:53.038Z,18.10
2017-08-18T03:30:20.642Z,17.90
2017-08-18T03:32:48.170Z,17.90
2017-08-18T03:35:15.822Z,17.90
2017-08-18T03:37:43.382Z,17.90
2017-08-18T03:40:10.945Z,17.90
2017-08-18T03:42:38.476Z,17.80
2017-08-18T03:45:06.009Z,17.80
2017-08-18T03:47:34.325Z,17.50
2017-08-18T03:50:01.932Z,17.50
2017-08-18T03:52:29.489Z,17.40
2017-08-18T03:54:57.049Z,17.30
2017-08-18T03:57:24.583Z,17.30
2017-08-18T03:59:52.113Z,17.20
2017-08-18T04:02:19.674Z,17.20
2017-08-18T04:04:47.205Z,17.00
2017-08-18T04:07:14.734Z,17.00
2017-08-18T04:09:42.302Z,17.00
2017-08-18T04:12:09.840Z,16.90
2017-08-18T04:14:37.374Z,16.90
2017-08-18T04:17:04.941Z,16.90
2017-08-18T04:19:32.473Z,16.90
2017-08-18T04:22:00.777Z,16.70
2017-08-18T04:24:28.343Z,16.70
2017-08-18T04:26:55.883Z,16.70
2017-08-18T04:29:23.440Z,16.70
2017-08-18T04:31:50.983Z,16.70
2017-08-18T04:34:19.302Z,17.30
2017-08-18T04:36:46.826Z,17.30
2017-08-18T04:39:15.131Z,17.50
2017-08-18T04:41:42.703Z,17.50
2017-08-18T04:44:10.231Z,17.80
2017-08-18T04:46:38.545Z,17.90
2017-08-18T04:49:06.073Z,17.90
2017-08-18T04:51:33.632Z,18.00
2017-08-18T04:54:01.166Z,18.00
2017-08-18T04:56:28.700Z,18.00
2017-08-18T04:58:56.253Z,18.00
2017-08-18T05:01:23.788Z,18.10
2017-08-18T05:03:51.344Z,18.10
2017-08-18T05:06:18.876Z,18.20
2017-08-18T05:08:47.197Z,18.30
2017-08-18T05:11:14.721Z,18.30
2017-08-18T05:13:43.021Z,18.40
2017-08-18T05:16:10.573Z,18.40
2017-08-18T05:18:38.116Z,18.50
2017-08-18T05:21:06.432Z,18.50
2017-08-18T05:23:33.965Z,18.50
2017-08-18T05:26:01.501Z,18.50
2017-08-18T05:28:29.062Z,18.50
2017-08-18T05:30:57.368Z,18.60
2017-08-18T05:33:24.901Z,18.60
2017-08-18T05:35:53.219Z,18.50
2017-08-18T05:38:20.760Z,18.50
2017-08-18T05:40:48.289Z,18.50
2017-08-18T05:43:16.641Z,18.70
2017-08-18T05:45:44.192Z,18.70
2017-08-18T05:48:11.745Z,18.90
2017-08-18T05:50:39.283Z,19.00
2017-08-18T05:53:06.841Z,18.90
2017-08-18T05:55:34.393Z,19.10
2017-08-18T05:58:01.958Z,19.40
2017-08-18T06:00:29.492Z,19.40
2017-08-18T06:02:57.806Z,19.50
2017-08-18T06:05:25.362Z,19.50
2017-08-18T06:07:52.893Z,19.40
2017-08-18T06:10:20.451Z,19.60
2017-08-18T06:12:48.758Z,19.80
2017-08-18T06:15:16.293Z,19.80
2017-08-18T06:17:44.615Z,20.00
2017-08-18T06:20:12.152Z,20.00
2017-08-18T06:22:39.690Z,20.20
2017-08-18T06:25:07.252Z,20.40
2017-08-18T06:27:34.803Z,20.40
2017-08-18T06:30:03.101Z,20.50
2017-08-18T06:32:30.707Z,20.50
2017-08-18T06:34:58.257Z,20.70
2017-08-18T06:37:25.845Z,21.30
2017-08-18T06:39:53.377Z,21.70
2017-08-18T06:42:20.910Z,22.40
2017-08-18T06:44:48.465Z,23.40
2017-08-18T06:47:16.013Z,23.60
2017-08-18T06:49:43.562Z,23.70
2017-08-18T06:52:11.869Z,23.20
2017-08-18T06:54:39.429Z,23.20
2017-08-18T06:57:06.956Z,22.70
2017-08-18T06:59:35.327Z,22.00
2017-08-18T07:02:02.917Z,21.90
2017-08-18T07:04:30.454Z,21.90
2017-08-18T07:06:58.787Z,21.80
2017-08-18T07:09:26.329Z,21.70
2017-08-18T07:11:53.864Z,22.10
2017-08-18T07:14:22.193Z,22.30
2017-08-18T07:16:49.726Z,22.30
2017-08-18T07:19:17.277Z,22.20
2017-08-18T07:21:44.817Z,22.10
2017-08-18T07:24:13.122Z,21.90
2017-08-18T07:26:40.700Z,21.90
2017-08-18T07:29:08.232Z,22.10
2017-08-18T07:31:36.401Z,22.00
2017-08-18T07:34:03.933Z,22.10
2017-08-18T07:36:32.288Z,22.20
2017-08-18T07:38:59.814Z,22.10
2017-08-18T07:41:27.354Z,22.40
2017-08-18T07:43:54.915Z,22.50
2017-08-18T07:46:22.454Z,22.90
2017-08-18T07:48:50.763Z,23.60
2017-08-18T07:51:18.323Z,23.50
2017-08-18T07:53:46.495Z,23.50
2017-08-18T07:56:14.069Z,22.90
2017-08-18T07:58:41.594Z,23.10
2017-08-18T08:01:09.901Z,23.20
2017-08-18T08:03:37.437Z,23.20
2017-08-18T08:06:04.981Z,23.40
2017-08-18T08:08:33.305Z,24.40
2017-08-18T08:11:00.851Z,24.40
2017-08-18T08:13:28.418Z,26.00
2017-08-18T08:15:55.961Z,27.50
2017-08-18T08:18:23.512Z,27.00
2017-08-18T08:20:51.046Z,26.10
2017-08-18T08:23:18.573Z,25.50
2017-08-18T08:25:46.128Z,24.90
2017-08-18T08:28:13.645Z,25.90
2017-08-18T08:30:41.967Z,27.30
2017-08-18T08:33:09.518Z,27.30
2017-08-18T08:35:37.104Z,27.30
2017-08-18T08:38:04.642Z,27.20
2017-08-18T08:40:32.178Z,27.70
2017-08-18T08:42:59.732Z,28.00
2017-08-18T08:45:27.291Z,28.20
2017-08-18T08:47:54.834Z,27.80
2017-08-18T08:50:23.151Z,26.70
2017-08-18T08:52:50.682Z,26.70
2017-08-18T08:55:18.231Z,26.70
2017-08-18T08:57:46.528Z,29.40
2017-08-18T09:00:14.049Z,29.30
2017-08-18T09:02:41.665Z,30.20
2017-08-18T09:05:09.200Z,30.50
2017-08-18T09:07:37.496Z,28.90
2017-08-18T09:10:05.029Z,28.80
2017-08-18T09:12:33.346Z,29.10
2017-08-18T09:15:00.921Z,29.00
2017-08-18T09:17:28.477Z,29.80
2017-08-18T09:19:56.025Z,30.40
2017-08-18T09:22:23.554Z,31.00
2017-08-18T09:24:51.140Z,31.00
2017-08-18T09:27:18.666Z,30.70
2017-08-18T09:29:46.254Z,31.20
2017-08-18T09:32:13.788Z,31.50
2017-08-18T09:34:42.105Z,31.40
2017-08-18T09:37:09.660Z,31.40
2017-08-18T09:39:37.204Z,31.10
2017-08-18T09:42:04.762Z,31.10
2017-08-18T09:44:32.313Z,31.80
2017-08-18T09:46:59.869Z,31.80
2017-08-18T09:49:40.182Z,32.00
2017-08-18T10:05:47.987Z,32.70
2017-08-18T10:08:15.509Z,34.20
2017-08-18T10:10:43.085Z,35.10
2017-08-18T10:13:10.629Z,34.60
2017-08-18T10:15:38.156Z,34.50
2017-08-18T10:18:06.469Z,37.10
2017-08-18T10:20:34.012Z,37.00
2017-08-18T10:23:01.566Z,37.70
2017-08-18T10:25:29.113Z,37.20
2017-08-18T10:27:57.423Z,36.50
2017-08-18T10:30:24.979Z,36.40
2017-08-18T10:32:52.523Z,35.80
2017-08-18T10:35:20.086Z,37.00
2017-08-18T10:37:47.625Z,37.20
2017-08-18T10:40:15.981Z,37.50
2017-08-18T10:42:43.512Z,37.50
2017-08-18T10:45:11.091Z,38.00
2017-08-18T10:47:38.662Z,37.80
2017-08-18T10:50:06.202Z,35.60
2017-08-18T10:52:33.748Z,35.50
2017-08-18T10:55:01.308Z,35.20
2017-08-18T10:57:28.965Z,35.20
2017-08-18T10:59:56.510Z,36.00
2017-08-18T11:02:24.068Z,35.00
2017-08-18T11:04:51.627Z,33.00
2017-08-18T11:07:19.165Z,31.20
2017-08-18T11:09:47.474Z,29.80
2017-08-18T11:12:15.025Z,29.70
2017-08-18T11:14:42.601Z,30.40
2017-08-18T11:17:10.166Z,30.10
2017-08-18T11:19:37.691Z,29.70
2017-08-18T11:22:05.226Z,30.00
2017-08-18T11:24:32.786Z,30.60
2017-08-18T11:27:01.104Z,31.90
2017-08-18T11:29:28.657Z,31.90
2017-08-18T11:31:56.209Z,31.30
2017-08-18T11:34:23.745Z,30.90
2017-08-18T11:36:52.062Z,30.40
2017-08-18T11:39:19.585Z,30.40
2017-08-18T11:41:47.902Z,29.70
2017-08-18T11:44:15.434Z,29.70
2017-08-18T11:46:43.974Z,30.50
2017-08-18T11:49:11.533Z,30.50
2017-08-18T11:51:39.072Z,30.90
2017-08-18T11:54:06.612Z,30.90
2017-08-18T11:56:34.138Z,30.70
2017-08-18T11:59:02.451Z,29.80
2017-08-18T12:01:30.010Z,29.80
2017-08-18T12:03:57.550Z,29.70
2017-08-18T12:06:25.881Z,30.30
2017-08-18T12:08:53.436Z,30.40
2017-08-18T12:11:21.025Z,30.60
2017-08-18T12:13:48.589Z,30.50
2017-08-18T12:16:16.888Z,29.20
2017-08-18T12:18:45.199Z,29.00
2017-08-18T12:21:12.731Z,29.00
2017-08-18T12:23:40.267Z,29.00
2017-08-18T12:26:07.856Z,29.10
2017-08-18T12:28:35.395Z,29.70
2017-08-18T12:31:03.703Z,29.80
2017-08-18T12:33:31.236Z,29.80
2017-08-18T12:35:59.559Z,29.70
2017-08-18T12:38:27.101Z,29.60
2017-08-18T12:40:54.634Z,29.30
2017-08-18T12:43:22.948Z,29.30
2017-08-18T12:45:50.479Z,29.30
2017-08-18T12:48:18.022Z,29.30
2017-08-18T12:50:46.358Z,29.00
2017-08-18T12:53:13.904Z,29.00
2017-08-18T12:55:41.464Z,28.90
2017-08-18T12:58:08.992Z,29.00
2017-08-18T13:00:37.303Z,29.30
2017-08-18T13:03:04.830Z,29.30
2017-08-18T13:05:32.394Z,30.00
2017-08-18T13:07:59.925Z,30.50
2017-08-18T13:10:27.457Z,30.40
2017-08-18T13:12:55.052Z,30.30
2017-08-18T13:15:22.624Z,30.40
2017-08-18T13:17:50.953Z,29.40
2017-08-18T13:20:18.500Z,29.30
2017-08-18T13:22:46.643Z,29.40
2017-08-18T13:25:14.185Z,29.50
2017-08-18T13:27:42.480Z,29.30
2017-08-18T13:30:10.034Z,29.20
2017-08-18T13:32:38.326Z,29.90
2017-08-18T13:35:05.905Z,30.00
2017-08-18T13:37:33.446Z,29.30
2017-08-18T13:40:00.993Z,29.00
2017-08-18T13:42:28.555Z,29.00
2017-08-18T13:44:56.125Z,29.00
2017-08-18T13:47:23.653Z,29.00
2017-08-18T13:49:51.993Z,29.40
2017-08-18T13:52:19.522Z,29.40
2017-08-18T13:54:47.085Z,29.60
2017-08-18T13:57:14.624Z,29.70
2017-08-18T13:59:42.950Z,29.10
2017-08-18T14:02:10.513Z,29.10
2017-08-18T14:04:38.041Z,28.90
2017-08-18T14:07:05.564Z,29.20
2017-08-18T14:09:33.157Z,29.80
2017-08-18T14:12:00.701Z,30.10
2017-08-18T14:14:29.666Z,30.00
2017-08-18T14:16:57.222Z,30.00
2017-08-18T14:19:24.754Z,30.20
2017-08-18T14:21:52.284Z,30.30
2017-08-18T14:24:19.844Z,30.20
2017-08-18T14:26:53.002Z,29.70
2017-08-18T14:29:20.543Z,29.50
2017-08-18T14:31:48.076Z,29.10
2017-08-18T14:34:15.767Z,29.20
2017-08-18T14:36:43.293Z,29.30
2017-08-18T14:39:10.861Z,29.30
2017-08-18T14:41:38.409Z,29.30
2017-08-18T14:44:05.949Z,29.30
2017-08-18T14:46:33.510Z,29.40
2017-08-18T14:49:01.849Z,29.60
2017-08-18T14:51:29.412Z,29.60
2017-08-18T14:53:56.941Z,30.00
2017-08-18T14:56:24.498Z,30.20
2017-08-18T14:58:52.045Z,30.10
2017-08-18T15:01:19.577Z,29.70
2017-08-18T15:03:47.908Z,28.90
2017-08-18T15:06:15.428Z,28.90
2017-08-18T15:08:42.972Z,28.60
2017-08-18T15:11:11.432Z,27.90
2017-08-18T15:13:39.745Z,27.50
2017-08-18T15:16:07.289Z,27.50
2017-08-18T15:18:35.586Z,26.60
2017-08-18T15:21:03.137Z,26.60
2017-08-18T15:23:30.731Z,26.30
2017-08-18T15:25:58.260Z,26.10
2017-08-18T15:28:25.811Z,25.90
2017-08-18T15:30:54.112Z,25.50
2017-08-18T15:33:21.687Z,25.50
2017-08-18T15:35:49.225Z,25.40
2017-08-18T15:38:16.761Z,25.10
2017-08-18T15:40:45.103Z,24.10
2017-08-18T15:43:12.649Z,24.10
2017-08-18T15:45:40.198Z,23.50
2017-08-18T15:48:07.749Z,23.10
2017-08-18T15:50:35.285Z,22.80
2017-08-18T15:53:03.574Z,22.30
2017-08-18T15:55:31.169Z,22.20
2017-08-18T15:57:58.706Z,22.00
2017-08-18T16:00:26.264Z,21.90
2017-08-18T16:02:53.805Z,21.70
2017-08-18T16:05:21.330Z,21.50
2017-08-18T16:07:48.874Z,21.30
2017-08-18T16:10:16.465Z,21.00
2017-08-18T16:12:44.004Z,20.80
2017-08-18T16:15:11.569Z,20.30
2017-08-18T16:17:39.125Z,20.10
2017-08-18T16:20:06.684Z,19.90
2017-08-18T16:22:34.249Z,19.60
2017-08-18T16:25:01.795Z,19.60
2017-08-18T16:27:29.347Z,19.50
2017-08-18T16:29:56.905Z,19.50
2017-08-18T16:32:24.443Z,19.50
2017-08-18T16:34:51.977Z,19.40
2017-08-18T16:37:20.296Z,19.20
2017-08-18T16:39:47.837Z,19.20
2017-08-18T16:42:15.371Z,19.20
2017-08-18T16:44:43.689Z,19.20
2017-08-18T16:47:11.242Z,19.10
2017-08-18T16:49:38.817Z,19.00
2017-08-18T16:52:06.367Z,18.80
2017-08-18T16:54:33.913Z,18.80
2017-08-18T16:57:01.445Z,18.80
2017-08-18T16:59:29.770Z,18.60
2017-08-18T17:01:57.310Z,18.60
2017-08-18T17:04:24.842Z,18.50
2017-08-18T17:06:53.164Z,18.50
2017-08-18T17:09:20.708Z,18.40
2017-08-18T17:11:48.273Z,18.30
2017-08-18T17:14:15.843Z,18.20
2017-08-18T17:16:43.397Z,18.10
2017-08-18T17:19:10.954Z,17.90
2017-08-18T17:21:38.489Z,17.70
2017-08-18T17:24:06.049Z,17.60
2017-08-18T17:26:33.589Z,17.60
2017-08-18T17:29:01.899Z,17.20
2017-08-18T17:31:29.459Z,17.20
2017-08-18T17:33:57.006Z,17.00
2017-08-18T17:36:24.579Z,16.90
2017-08-18T17:38:52.112Z,16.80
2017-08-18T17:41:19.681Z,16.70
2017-08-18T17:43:47.234Z,16.70
2017-08-18T17:46:15.526Z,16.60
2017-08-18T17:48:43.096Z,16.60
2017-08-18T17:51:10.639Z,16.50
2017-08-18T17:53:38.956Z,16.70
2017-08-18T17:56:06.489Z,16.60
2017-08-18T17:58:34.020Z,16.70
2017-08-18T18:01:02.357Z,16.40
2017-08-18T18:03:29.898Z,16.40
2017-08-18T18:05:57.458Z,16.40
2017-08-18T18:08:25.106Z,16.30
2017-08-18T18:10:52.657Z,16.30
2017-08-18T18:13:20.202Z,16.20
2017-08-18T18:15:48.494Z,16.20
2017-08-18T18:18:16.117Z,16.20
2017-08-18T18:20:43.648Z,16.30
2017-08-18T18:23:11.168Z,16.30
2017-08-18T18:25:39.488Z,16.20
2017-08-18T18:28:07.022Z,16.20
2017-08-18T18:30:34.581Z,16.20
2017-08-18T18:33:02.105Z,16.30
2017-08-18T18:35:30.420Z,16.20
2017-08-18T18:37:57.953Z,16.20
2017-08-18T18:40:26.258Z,16.10
2017-08-18T18:42:53.818Z,16.10
2017-08-18T18:45:21.394Z,16.10
2017-08-18T18:47:48.953Z,16.10
2017-08-18T18:50:16.511Z,16.10
2017-08-18T18:52:44.066Z,16.00
2017-08-18T18:55:11.636Z,16.10
2017-08-18T18:57:39.178Z,16.00
2017-08-18T19:00:06.758Z,16.00
2017-08-18T19:02:34.282Z,16.10
2017-08-18T19:05:01.828Z,16.00
2017-08-18T19:07:30.165Z,16.00
2017-08-18T19:09:57.709Z,16.00
2017-08-18T19:12:25.236Z,15.90
2017-08-18T19:14:52.790Z,15.90
2017-08-18T19:17:20.320Z,15.90
2017-08-18T19:19:47.900Z,15.90
2017-08-18T19:22:16.214Z,16.00
2017-08-18T19:24:43.737Z,15.90
2017-08-18T19:27:12.036Z,15.90
2017-08-18T19:29:39.597Z,15.90
2017-08-18T19:32:07.135Z,15.90
2017-08-18T19:34:34.684Z,15.90
2017-08-18T19:37:02.258Z,16.00
2017-08-18T19:39:30.576Z,16.00
2017-08-18T19:41:58.145Z,16.00
2017-08-18T19:44:25.691Z,16.00
2017-08-18T19:46:53.249Z,16.00
2017-08-18T19:49:20.781Z,16.00
2017-08-18T19:51:49.096Z,16.10
2017-08-18T19:54:16.633Z,16.10
2017-08-18T19:56:44.170Z,16.10
2017-08-18T19:59:12.488Z,16.00
2017-08-18T20:01:40.013Z,16.00
2017-08-18T20:04:08.349Z,16.10
2017-08-18T20:06:35.887Z,16.10
2017-08-18T20:09:03.437Z,16.10
2017-08-18T20:11:30.962Z,16.00
2017-08-18T20:13:59.285Z,16.20
2017-08-18T20:16:26.853Z,16.20
2017-08-18T20:18:54.386Z,16.20
2017-08-18T20:21:21.944Z,16.10
2017-08-18T20:23:49.473Z,16.10
2017-08-18T20:26:17.781Z,16.10
2017-08-18T20:28:45.340Z,16.00
2017-08-18T20:31:12.879Z,16.10
2017-08-18T20:33:41.204Z,16.10
2017-08-18T20:36:08.746Z,16.10
2017-08-18T20:38:36.279Z,16.10
2017-08-18T20:41:03.838Z,16.00
2017-08-18T20:43:32.131Z,16.00
2017-08-18T20:45:59.685Z,16.00
2017-08-18T20:48:27.293Z,16.00
2017-08-18T20:50:54.833Z,15.90
2017-08-18T20:53:22.394Z,16.00
2017-08-18T20:55:49.926Z,16.10
2017-08-18T20:58:17.481Z,16.00
2017-08-18T21:00:45.020Z,16.00
2017-08-18T21:03:12.576Z,16.00
2017-08-18T21:05:40.129Z,16.10
2017-08-18T21:08:07.682Z,16.00
2017-08-18T21:10:35.243Z,16.00
2017-08-18T21:13:02.788Z,16.00
2017-08-18T21:15:30.317Z,16.10
2017-08-18T21:17:57.869Z,16.10
2017-08-18T21:20:25.412Z,16.10
2017-08-18T21:22:52.948Z,16.00
2017-08-18T21:25:20.505Z,15.90
2017-08-18T21:27:48.039Z,15.90
2017-08-18T21:30:15.603Z,15.80
2017-08-18T21:32:43.141Z,15.80
2017-08-18T21:35:10.701Z,15.80
2017-08-18T21:37:38.252Z,15.70
2017-08-18T21:40:05.823Z,15.70
2017-08-18T21:42:33.366Z,15.70
2017-08-18T21:45:00.898Z,15.70
2017-08-18T21:47:29.213Z,15.60
2017-08-18T21:49:56.797Z,15.60
2017-08-18T21:52:24.328Z,15.60
2017-08-18T21:54:51.902Z,15.60
2017-08-18T21:57:19.441Z,15.60
2017-08-18T21:59:46.977Z,15.50
2017-08-18T22:02:15.299Z,15.60
2017-08-18T22:04:42.849Z,15.60
2017-08-18T22:07:10.434Z,15.60
2017-08-18T22:09:37.973Z,15.50
2017-08-18T22:12:05.505Z,15.50
2017-08-18T22:14:33.815Z,15.40
2017-08-18T22:17:01.355Z,15.40
2017-08-18T22:19:28.909Z,15.40
2017-08-18T22:21:56.441Z,15.40
2017-08-18T22:24:24.767Z,15.50
2017-08-18T22:26:52.339Z,15.40
2017-08-18T22:29:19.873Z,15.40
2017-08-18T22:31:47.861Z,15.40
2017-08-18T22:34:15.453Z,15.50
2017-08-18T22:36:42.984Z,15.50
2017-08-18T22:39:10.528Z,15.50
2017-08-18T22:41:38.054Z,15.50
2017-08-18T22:44:06.400Z,15.40
2017-08-18T22:46:33.935Z,15.40
2017-08-18T22:49:01.460Z,15.40
2017-08-18T22:51:29.781Z,15.30
2017-08-18T22:53:57.342Z,15.30
2017-08-18T22:56:24.893Z,15.20
2017-08-18T22:58:52.433Z,15.20
2017-08-18T23:01:19.987Z,15.20
2017-08-18T23:03:47.537Z,15.20
2017-08-18T23:06:15.837Z,15.20
2017-08-18T23:08:43.393Z,15.10
2017-08-18T23:11:10.918Z,15.10
2017-08-18T23:13:39.248Z,15.20
2017-08-18T23:16:06.825Z,15.20
2017-08-18T23:18:34.357Z,15.30
2017-08-18T23:21:01.942Z,15.30
2017-08-18T23:23:29.501Z,15.30
2017-08-18T23:25:57.025Z,15.40
2017-08-18T23:28:24.552Z,15.40
2017-08-18T23:30:52.117Z,15.40
2017-08-18T23:33:20.444Z,15.40
2017-08-18T23:35:47.982Z,15.40
2017-08-18T23:38:15.522Z,15.40
2017-08-18T23:40:43.845Z,15.40
2017-08-18T23:43:11.384Z,15.40
2017-08-18T23:45:38.921Z,15.40
2017-08-18T23:48:07.235Z,15.30
2017-08-18T23:50:34.761Z,15.20
2017-08-18T23:53:03.072Z,15.20
2017-08-18T23:55:30.594Z,15.20
2017-08-18T23:57:58.905Z,15.10
